Time;durP1;ratioP1;P1;durP2;ratioP2;P2;SDS_P1;SDS_P2;PMS_P1;PMS_P2;Temp;Humidity;BMP_temperature;BMP_pressure;BME280_temperature;BME280_humidity;BME280_pressure;Samples;Min_cycle;Max_cycle;Signal;HPM_P1;HPM_P2
2021/06/26 00:02:03;;;;;;;27.48;24.08;;;14.30;99.90;;;;;;5074463;28;20040;-83
2021/06/26 00:04:29;;;;;;;28.13;24.85;;;14.30;99.90;;;;;;5073753;28;20040;-81
2021/06/26 00:06:55;;;;;;;28.40;24.77;;;14.30;99.90;;;;;;5073189;28;20053;-82
2021/06/26 00:09:22;;;;;;;28.02;23.95;;;14.30;99.90;;;;;;5073853;28;20039;-82
2021/06/26 00:11:49;;;;;;;28.08;24.70;;;14.20;99.90;;;;;;5074184;28;20036;-82
2021/06/26 00:14:17;;;;;;;34.40;24.15;;;14.10;99.90;;;;;;5073942;28;20032;-81
2021/06/26 00:16:43;;;;;;;29.40;25.15;;;14.10;99.90;;;;;;5073435;28;20044;-82
2021/06/26 00:19:09;;;;;;;33.17;26.30;;;14.10;99.90;;;;;;5078817;28;20039;-81
2021/06/26 00:21:35;;;;;;;29.20;24.75;;;14.10;99.90;;;;;;5080432;28;20028;-82
2021/06/26 00:24:02;;;;;;;35.08;25.90;;;14.10;99.90;;;;;;5076516;28;20033;-83
2021/06/26 00:26:28;;;;;;;34.75;26.17;;;14.10;99.90;;;;;;5073302;28;20035;-83
2021/06/26 00:28:55;;;;;;;31.35;26.08;;;14.00;99.90;;;;;;5073498;28;20041;-82
2021/06/26 00:31:21;;;;;;;29.80;24.83;;;14.00;99.90;;;;;;5074634;28;20029;-82
2021/06/26 00:33:47;;;;;;;31.83;25.90;;;14.00;99.90;;;;;;5053712;28;20037;-82
2021/06/26 00:36:14;;;;;;;32.25;25.20;;;13.90;99.90;;;;;;5076631;28;20039;-82
2021/06/26 00:38:40;;;;;;;30.83;25.02;;;13.90;99.90;;;;;;5074505;28;20039;-82
2021/06/26 00:41:07;;;;;;;31.98;25.83;;;13.80;99.90;;;;;;5073908;28;20038;-82
2021/06/26 00:43:33;;;;;;;33.90;24.73;;;13.80;99.90;;;;;;5073195;28;20051;-81
2021/06/26 00:46:05;;;;;;;32.17;25.33;;;13.80;99.90;;;;;;5074443;28;20032;-82
2021/06/26 00:48:31;;;;;;;29.55;25.00;;;13.70;99.90;;;;;;5074237;28;20032;-82
2021/06/26 00:50:58;;;;;;;28.90;23.83;;;13.70;99.90;;;;;;5076467;28;20039;-82
2021/06/26 00:53:24;;;;;;;29.13;24.30;;;13.80;99.90;;;;;;5076858;28;20035;-82
2021/06/26 00:55:54;;;;;;;30.35;24.13;;;13.90;99.90;;;;;;5065848;28;20391;-83
2021/06/26 00:58:23;;;;;;;28.38;23.23;;;13.90;99.90;;;;;;5056790;28;20052;-82
2021/06/26 01:00:52;;;;;;;27.50;23.38;;;14.00;99.90;;;;;;5071013;28;20036;-83
2021/06/26 01:03:19;;;;;;;30.45;22.45;;;13.80;99.90;;;;;;5065686;28;20029;-82
2021/06/26 01:05:45;;;;;;;27.02;23.10;;;13.70;99.90;;;;;;5085733;28;20035;-82
2021/06/26 01:08:12;;;;;;;34.28;24.42;;;13.60;99.90;;;;;;5090319;28;20047;-82
2021/06/26 01:10:38;;;;;;;30.63;24.58;;;13.70;99.90;;;;;;5086287;28;20033;-82
2021/06/26 01:13:07;;;;;;;28.45;22.73;;;13.70;99.90;;;;;;5084755;28;20055;-82
2021/06/26 01:15:34;;;;;;;25.80;22.75;;;13.60;99.90;;;;;;5083225;28;20039;-83
2021/06/26 01:18:00;;;;;;;26.63;22.48;;;13.40;99.90;;;;;;5080095;28;20040;-83
2021/06/26 01:20:27;;;;;;;26.33;21.77;;;13.30;99.90;;;;;;5080224;28;20028;-82
2021/06/26 01:22:59;;;;;;;28.70;22.05;;;13.30;99.90;;;;;;5079126;28;20033;-82
2021/06/26 01:25:30;;;;;;;25.08;22.20;;;13.20;99.90;;;;;;5079075;28;20033;-82
2021/06/26 01:27:58;;;;;;;29.48;23.77;;;13.20;99.90;;;;;;5079533;28;20404;-82
2021/06/26 01:30:32;;;;;;;30.48;24.50;;;13.20;99.90;;;;;;5078639;28;20033;-83
2021/06/26 01:32:59;;;;;;;32.45;23.92;;;13.20;99.90;;;;;;5079057;28;20028;-82
2021/06/26 01:35:25;;;;;;;27.05;22.42;;;13.10;99.90;;;;;;5080306;28;20496;-82
2021/06/26 01:37:52;;;;;;;29.90;23.83;;;13.10;99.90;;;;;;5079020;28;20045;-83
2021/06/26 01:40:21;;;;;;;27.98;24.33;;;13.00;99.90;;;;;;5081334;28;20028;-82
2021/06/26 01:42:49;;;;;;;27.88;22.65;;;13.00;99.90;;;;;;5078757;28;20028;-82
2021/06/26 01:45:17;;;;;;;34.67;24.40;;;13.00;99.90;;;;;;5090667;28;20032;-82
2021/06/26 01:47:51;;;;;;;33.05;24.67;;;13.00;99.90;;;;;;5098232;28;20032;-82
2021/06/26 01:50:19;;;;;;;32.33;23.20;;;13.00;99.90;;;;;;5096774;28;20051;-81
2021/06/26 01:52:46;;;;;;;25.38;22.40;;;12.90;99.90;;;;;;5098179;28;20048;-82
2021/06/26 01:55:14;;;;;;;36.05;23.70;;;12.90;99.90;;;;;;5073701;28;20045;-82
2021/06/26 01:57:43;;;;;;;29.98;23.48;;;12.80;99.90;;;;;;5058637;28;20052;-82
2021/06/26 02:00:10;;;;;;;28.35;23.35;;;12.80;99.90;;;;;;5075241;28;20032;-82
2021/06/26 02:02:42;;;;;;;27.83;23.85;;;12.80;99.90;;;;;;5074918;28;20048;-82
2021/06/26 02:05:10;;;;;;;32.00;25.65;;;12.80;99.90;;;;;;5074185;28;20490;-82
2021/06/26 02:07:36;;;;;;;37.67;26.55;;;12.80;99.90;;;;;;5074676;28;20048;-82
2021/06/26 02:10:06;;;;;;;33.28;26.35;;;12.80;99.90;;;;;;5074179;28;20055;-82
2021/06/26 02:12:33;;;;;;;30.73;26.15;;;12.80;99.90;;;;;;5073872;28;20041;-83
2021/06/26 02:14:59;;;;;;;29.00;23.02;;;12.70;99.90;;;;;;5074094;28;20028;-81
2021/06/26 02:17:26;;;;;;;28.02;21.25;;;12.60;99.90;;;;;;5073841;28;20453;-82
2021/06/26 02:19:52;;;;;;;31.08;24.38;;;12.60;99.90;;;;;;5064317;28;20420;-82
2021/06/26 02:22:18;;;;;;;32.25;23.27;;;12.60;99.90;;;;;;5072556;28;20032;-82
2021/06/26 02:24:45;;;;;;;31.45;24.17;;;12.50;99.90;;;;;;5073905;28;20033;-82
2021/06/26 02:27:11;;;;;;;30.10;23.63;;;12.60;99.90;;;;;;5072960;28;20044;-82
2021/06/26 02:29:37;;;;;;;31.52;23.92;;;12.60;99.90;;;;;;5073916;28;20039;-83
2021/06/26 02:32:04;;;;;;;36.13;23.70;;;12.50;99.90;;;;;;5073251;28;20029;-81
2021/06/26 02:34:31;;;;;;;30.00;22.08;;;12.60;99.90;;;;;;5072866;28;20028;-82
2021/06/26 02:36:58;;;;;;;29.02;21.17;;;12.50;99.90;;;;;;5072450;28;20036;-82
2021/06/26 02:39:25;;;;;;;28.23;21.75;;;12.50;99.90;;;;;;5073398;28;20048;-82
2021/06/26 02:41:52;;;;;;;28.33;23.05;;;12.50;99.90;;;;;;5070888;28;20037;-82
2021/06/26 02:44:18;;;;;;;30.48;24.23;;;12.60;99.90;;;;;;5072544;28;20044;-81
2021/06/26 02:46:44;;;;;;;29.95;24.77;;;12.70;99.90;;;;;;5059205;28;20051;-81
2021/06/26 02:49:11;;;;;;;28.02;23.25;;;12.70;99.90;;;;;;5064809;28;20490;-82
2021/06/26 02:51:37;;;;;;;27.25;21.88;;;12.60;99.90;;;;;;5073279;28;20474;-82
2021/06/26 02:54:03;;;;;;;31.73;22.33;;;12.60;99.90;;;;;;5072227;28;20045;-83
2021/06/26 02:56:30;;;;;;;28.33;22.10;;;12.50;99.90;;;;;;5073094;28;20044;-82
2021/06/26 02:58:56;;;;;;;35.75;23.48;;;12.30;99.90;;;;;;5072479;28;20041;-83
2021/06/26 03:01:22;;;;;;;29.73;24.98;;;12.30;99.90;;;;;;5073068;28;20387;-82
2021/06/26 03:03:48;;;;;;;34.55;25.55;;;12.30;99.90;;;;;;5072284;28;20047;-83
2021/06/26 03:06:14;;;;;;;31.42;23.88;;;12.40;99.90;;;;;;5070601;28;20406;-83
2021/06/26 03:08:41;;;;;;;27.15;23.17;;;12.30;99.90;;;;;;5073177;28;20033;-83
2021/06/26 03:11:07;;;;;;;27.90;22.67;;;12.30;99.90;;;;;;5071460;28;20052;-83
2021/06/26 03:13:33;;;;;;;27.45;22.95;;;12.20;99.90;;;;;;5073801;28;20381;-81
2021/06/26 03:15:59;;;;;;;28.70;23.42;;;12.20;99.90;;;;;;5072611;28;20026;-82
2021/06/26 03:18:25;;;;;;;29.25;22.67;;;12.10;99.90;;;;;;5072829;28;20037;-81
2021/06/26 03:20:52;;;;;;;28.25;23.60;;;12.10;99.90;;;;;;5073006;28;20028;-82
2021/06/26 03:23:18;;;;;;;30.80;25.48;;;12.00;99.90;;;;;;5072434;28;20032;-82
2021/06/26 03:25:44;;;;;;;30.20;24.10;;;12.10;99.90;;;;;;5072360;28;20409;-82
2021/06/26 03:28:10;;;;;;;25.95;22.33;;;12.10;99.90;;;;;;5072358;28;20040;-82
2021/06/26 03:30:37;;;;;;;27.27;21.25;;;12.00;99.90;;;;;;5072441;28;20458;-82
2021/06/26 03:33:03;;;;;;;27.42;20.90;;;11.90;99.90;;;;;;5072210;28;20032;-81
2021/06/26 03:35:29;;;;;;;26.42;20.38;;;11.90;99.90;;;;;;5073061;28;20033;-80
2021/06/26 03:37:56;;;;;;;28.15;21.08;;;11.90;99.90;;;;;;5073254;28;20099;-82
2021/06/26 03:40:22;;;;;;;26.90;22.23;;;11.90;99.90;;;;;;5073618;28;20474;-81
2021/06/26 03:42:48;;;;;;;31.15;22.85;;;12.00;99.90;;;;;;5091766;28;20061;-82
2021/06/26 03:45:14;;;;;;;29.05;22.50;;;12.00;99.90;;;;;;5114176;28;20026;-83
2021/06/26 03:47:40;;;;;;;24.65;20.88;;;12.10;99.90;;;;;;5096489;28;20048;-83
2021/06/26 03:50:08;;;;;;;24.55;21.23;;;12.00;99.90;;;;;;5096857;28;20034;-82
2021/06/26 03:52:34;;;;;;;26.08;20.23;;;12.00;99.90;;;;;;5094371;28;20030;-81
2021/06/26 03:55:00;;;;;;;22.27;19.48;;;12.00;99.90;;;;;;5075786;28;20047;-82
2021/06/26 03:57:27;;;;;;;24.20;19.75;;;12.00;99.90;;;;;;5074577;28;20043;-82
2021/06/26 03:59:53;;;;;;;20.92;18.38;;;12.00;99.90;;;;;;5057170;28;20041;-81
2021/06/26 04:02:19;;;;;;;23.48;18.23;;;12.10;99.90;;;;;;5073478;28;20041;-82
2021/06/26 04:04:45;;;;;;;25.70;18.45;;;12.10;99.90;;;;;;5073202;28;20040;-81
2021/06/26 04:07:11;;;;;;;22.55;19.10;;;12.10;99.90;;;;;;5068046;28;20047;-82
2021/06/26 04:09:38;;;;;;;23.33;18.25;;;12.20;99.90;;;;;;5059898;28;20041;-82
2021/06/26 04:12:04;;;;;;;25.98;18.13;;;12.30;99.90;;;;;;5102615;28;20040;-82
2021/06/26 04:14:31;;;;;;;21.33;18.80;;;12.30;99.90;;;;;;5093320;28;20043;-82
2021/06/26 04:16:57;;;;;;;23.08;18.75;;;12.40;99.90;;;;;;5094849;28;20033;-82
2021/06/26 04:19:23;;;;;;;21.52;16.23;;;12.60;99.90;;;;;;5094293;28;20021;-82
2021/06/26 04:21:49;;;;;;;19.35;15.75;;;12.90;99.90;;;;;;5090230;28;20472;-82
2021/06/26 04:24:16;;;;;;;15.02;13.43;;;13.50;99.90;;;;;;5072091;28;20036;-82
2021/06/26 04:26:42;;;;;;;14.35;12.88;;;14.40;99.90;;;;;;5071916;28;20031;-82
2021/06/26 04:29:08;;;;;;;13.25;11.90;;;15.00;99.90;;;;;;5071950;28;20037;-82
2021/06/26 04:31:34;;;;;;;11.20;10.10;;;15.80;99.90;;;;;;5061880;28;20033;-82
2021/06/26 04:34:00;;;;;;;12.32;9.32;;;16.00;99.90;;;;;;5082535;28;20040;-82
2021/06/26 04:36:27;;;;;;;11.13;9.43;;;16.60;99.90;;;;;;5078005;28;20017;-83
2021/06/26 04:38:53;;;;;;;11.10;10.00;;;17.40;99.90;;;;;;5078520;28;20028;-83
2021/06/26 04:41:19;;;;;;;10.60;8.88;;;17.50;99.90;;;;;;5082636;28;20360;-82
2021/06/26 04:43:45;;;;;;;10.15;9.02;;;17.60;99.90;;;;;;5083651;28;20047;-83
2021/06/26 04:46:12;;;;;;;10.70;9.43;;;17.80;99.90;;;;;;5084426;28;20054;-81
2021/06/26 04:48:40;;;;;;;10.18;9.27;;;18.20;99.90;;;;;;5081794;28;20052;-81
2021/06/26 04:51:06;;;;;;;10.13;9.07;;;18.80;99.90;;;;;;5094329;28;20039;-82
2021/06/26 04:53:33;;;;;;;9.82;8.90;;;19.30;99.90;;;;;;5065679;28;20045;-83
2021/06/26 04:56:00;;;;;;;9.07;8.18;;;19.80;99.90;;;;;;5070503;28;20056;-83
2021/06/26 04:58:27;;;;;;;9.70;8.70;;;20.40;98.90;;;;;;5076059;28;20044;-82
2021/06/26 05:00:57;;;;;;;9.32;8.52;;;20.80;97.50;;;;;;5076086;28;20478;-81
2021/06/26 05:03:23;;;;;;;10.37;9.47;;;20.20;97.60;;;;;;5076918;28;20037;-81
2021/06/26 05:05:50;;;;;;;11.48;10.00;;;19.90;98.80;;;;;;5075606;28;20357;-83
2021/06/26 05:08:17;;;;;;;12.43;11.13;;;20.10;98.80;;;;;;5070109;28;20049;-80
2021/06/26 05:10:43;;;;;;;12.20;10.98;;;20.50;98.60;;;;;;5062583;28;20032;-82
2021/06/26 05:13:10;;;;;;;11.77;10.68;;;21.10;97.70;;;;;;5074594;28;20138;-82
2021/06/26 05:15:36;;;;;;;14.18;11.52;;;21.60;97.30;;;;;;5074010;28;20473;-82
2021/06/26 05:18:03;;;;;;;11.55;9.63;;;23.10;94.10;;;;;;5074900;28;20063;-82
2021/06/26 05:20:29;;;;;;;11.05;9.82;;;23.80;91.90;;;;;;5076567;28;20029;-82
2021/06/26 05:22:55;;;;;;;11.40;10.45;;;23.00;91.50;;;;;;5075673;28;20075;-82
2021/06/26 05:25:22;;;;;;;12.93;10.88;;;22.30;92.50;;;;;;5076032;28;20381;-82
2021/06/26 05:27:48;;;;;;;11.98;10.77;;;22.20;92.70;;;;;;5076495;28;20051;-82
2021/06/26 05:30:15;;;;;;;12.05;10.30;;;22.30;93.30;;;;;;5075056;28;20047;-82
2021/06/26 05:32:41;;;;;;;12.05;10.95;;;22.90;92.70;;;;;;5075208;28;20035;-81
2021/06/26 05:35:08;;;;;;;12.60;11.23;;;23.80;91.20;;;;;;5080486;28;20389;-82
2021/06/26 05:37:34;;;;;;;12.10;10.90;;;22.80;91.00;;;;;;5075242;28;20043;-82
2021/06/26 05:40:00;;;;;;;13.32;12.02;;;22.60;92.70;;;;;;5074592;28;20048;-82
2021/06/26 05:42:26;;;;;;;12.57;11.43;;;22.90;91.00;;;;;;5074746;28;20032;-81
2021/06/26 05:44:53;;;;;;;12.93;11.50;;;23.80;90.30;;;;;;5075859;28;20028;-81
2021/06/26 05:47:19;;;;;;;15.88;13.82;;;23.10;89.40;;;;;;5074389;28;20518;-81
2021/06/26 05:49:45;;;;;;;12.93;11.63;;;21.90;91.10;;;;;;5073950;28;20466;-82
2021/06/26 05:52:11;;;;;;;13.38;12.23;;;22.30;91.00;;;;;;5073825;28;20685;-80
2021/06/26 05:54:37;;;;;;;12.85;11.65;;;23.30;90.00;;;;;;5076287;28;20028;-81
2021/06/26 05:57:04;;;;;;;13.25;11.95;;;23.10;90.60;;;;;;5073905;28;20044;-81
2021/06/26 05:59:30;;;;;;;13.25;11.88;;;23.00;89.20;;;;;;5073755;28;20406;-81
2021/06/26 06:01:56;;;;;;;14.38;13.00;;;23.40;88.80;;;;;;5073221;28;20043;-81
2021/06/26 06:04:23;;;;;;;16.30;14.80;;;23.50;86.80;;;;;;5073378;28;20024;-82
2021/06/26 06:06:49;;;;;;;15.15;13.75;;;22.90;88.50;;;;;;5073930;28;20025;-81
2021/06/26 06:09:15;;;;;;;14.60;13.18;;;22.20;90.50;;;;;;5073305;28;20052;-79
2021/06/26 06:11:41;;;;;;;15.27;13.85;;;22.30;90.80;;;;;;5073376;28;20036;-78
2021/06/26 06:14:07;;;;;;;15.68;14.15;;;22.30;90.30;;;;;;5072806;28;20051;-77
2021/06/26 06:16:35;;;;;;;14.20;12.80;;;22.80;90.70;;;;;;5074498;28;20040;-78
2021/06/26 06:19:02;;;;;;;14.73;13.32;;;23.30;87.10;;;;;;5074031;28;20040;-79
2021/06/26 06:21:28;;;;;;;13.88;12.43;;;23.50;87.10;;;;;;5063765;28;20032;-80
2021/06/26 06:23:54;;;;;;;13.30;12.00;;;24.20;86.00;;;;;;5073847;28;20059;-79
2021/06/26 06:26:20;;;;;;;13.38;12.07;;;25.00;82.80;;;;;;5075057;28;20044;-79
2021/06/26 06:28:47;;;;;;;13.05;11.95;;;24.50;82.40;;;;;;5074768;28;20032;-79
2021/06/26 06:31:14;;;;;;;13.95;12.63;;;24.00;82.60;;;;;;5074513;28;20381;-79
2021/06/26 06:33:40;;;;;;;13.43;12.25;;;24.10;84.10;;;;;;5074165;28;20484;-79
2021/06/26 06:36:07;;;;;;;13.18;11.98;;;23.60;82.90;;;;;;5073057;28;20374;-80
2021/06/26 06:38:35;;;;;;;13.32;12.07;;;23.90;82.70;;;;;;5073675;28;20041;-79
2021/06/26 06:41:01;;;;;;;13.48;12.07;;;24.80;80.30;;;;;;5073804;28;20040;-80
2021/06/26 06:43:28;;;;;;;12.43;11.32;;;24.90;83.30;;;;;;5075123;28;20025;-79
2021/06/26 06:45:54;;;;;;;11.32;10.32;;;25.60;79.00;;;;;;5076303;28;20033;-80
2021/06/26 06:48:21;;;;;;;13.15;11.30;;;25.10;80.30;;;;;;5073282;28;20036;-80
2021/06/26 06:50:47;;;;;;;13.10;11.73;;;23.70;81.70;;;;;;5072974;28;20045;-80
2021/06/26 06:53:13;;;;;;;13.05;11.85;;;22.90;85.10;;;;;;5074625;28;20444;-79
2021/06/26 06:55:39;;;;;;;11.63;10.65;;;22.60;86.00;;;;;;5075953;28;20056;-78
2021/06/26 06:58:05;;;;;;;12.65;9.68;;;22.60;86.30;;;;;;5075568;28;20059;-80
2021/06/26 07:00:32;;;;;;;11.48;10.27;;;24.10;82.20;;;;;;5072354;28;20055;-78
2021/06/26 07:02:58;;;;;;;11.20;9.98;;;24.30;80.40;;;;;;5072379;28;20049;-79
2021/06/26 07:05:24;;;;;;;10.30;9.40;;;25.50;79.40;;;;;;5072527;28;20119;-79
2021/06/26 07:07:50;;;;;;;10.35;9.50;;;25.40;77.00;;;;;;5074068;28;20036;-79
2021/06/26 07:10:17;;;;;;;10.50;9.60;;;24.50;79.10;;;;;;5073613;28;20024;-78
2021/06/26 07:12:43;;;;;;;8.98;8.02;;;24.90;78.70;;;;;;5069224;28;20041;-80
2021/06/26 07:15:11;;;;;;;9.77;8.15;;;24.90;76.90;;;;;;5068690;28;20056;-79
2021/06/26 07:17:37;;;;;;;8.80;8.10;;;25.30;76.50;;;;;;5072825;28;20028;-79
2021/06/26 07:20:04;;;;;;;9.77;7.55;;;25.10;76.90;;;;;;5072787;28;20052;-79
2021/06/26 07:22:31;;;;;;;6.75;6.18;;;24.40;74.70;;;;;;5072124;28;20033;-79
2021/06/26 07:24:57;;;;;;;8.20;7.40;;;24.60;76.50;;;;;;5062303;28;20028;-79
2021/06/26 07:27:24;;;;;;;8.68;7.82;;;25.30;75.20;;;;;;5082049;28;20040;-79
2021/06/26 07:29:50;;;;;;;9.18;8.05;;;25.00;76.90;;;;;;5072661;28;20039;-78
2021/06/26 07:32:16;;;;;;;9.57;6.93;;;25.50;75.20;;;;;;5072950;28;20484;-79
2021/06/26 07:34:42;;;;;;;10.38;6.93;;;24.30;75.80;;;;;;5072308;28;20043;-79
2021/06/26 07:37:08;;;;;;;8.00;6.10;;;23.50;78.10;;;;;;5072055;28;20559;-78
2021/06/26 07:39:35;;;;;;;7.03;5.88;;;23.20;79.10;;;;;;5072047;28;20039;-79
2021/06/26 07:42:01;;;;;;;5.25;4.70;;;24.30;76.90;;;;;;5071854;28;20396;-79
2021/06/26 07:44:27;;;;;;;7.82;6.20;;;25.20;71.70;;;;;;5067540;28;20033;-78
2021/06/26 07:46:53;;;;;;;5.70;5.20;;;25.50;69.60;;;;;;5071092;28;20103;-80
2021/06/26 07:49:19;;;;;;;6.68;5.35;;;24.50;71.20;;;;;;5072111;28;20036;-79
2021/06/26 07:51:46;;;;;;;5.40;4.55;;;24.70;71.60;;;;;;5072545;28;20496;-78
2021/06/26 07:54:14;;;;;;;6.18;5.22;;;24.30;74.10;;;;;;5071441;28;20481;-78
2021/06/26 07:56:40;;;;;;;4.85;4.35;;;24.50;70.90;;;;;;5072144;28;20044;-79
2021/06/26 07:59:06;;;;;;;5.90;4.80;;;24.90;69.60;;;;;;5072061;28;20053;-78
2021/06/26 08:01:32;;;;;;;6.35;4.95;;;25.40;70.10;;;;;;5072821;28;20024;-80
2021/06/26 08:03:59;;;;;;;4.65;4.15;;;26.80;66.80;;;;;;5071441;28;20059;-79
2021/06/26 08:06:25;;;;;;;5.05;4.55;;;27.50;63.90;;;;;;5071829;28;20051;-79
2021/06/26 08:08:51;;;;;;;9.60;5.00;;;25.90;66.90;;;;;;5061015;28;20053;-78
2021/06/26 08:11:17;;;;;;;5.57;4.95;;;25.10;68.90;;;;;;5073841;28;20040;-80
2021/06/26 08:13:44;;;;;;;5.80;5.28;;;24.90;69.00;;;;;;5072554;28;20051;-79
2021/06/26 08:16:11;;;;;;;5.68;5.15;;;24.60;69.40;;;;;;5083498;28;20039;-79
2021/06/26 08:18:37;;;;;;;6.85;4.57;;;24.60;69.70;;;;;;5091079;28;20044;-79
2021/06/26 08:21:04;;;;;;;5.05;4.22;;;25.00;71.70;;;;;;5092554;28;20032;-79
2021/06/26 08:23:30;;;;;;;5.72;4.45;;;27.10;64.00;;;;;;5088885;28;20013;-79
2021/06/26 08:25:56;;;;;;;5.35;3.30;;;28.30;64.50;;;;;;5084585;28;20051;-78
2021/06/26 08:28:23;;;;;;;4.78;3.55;;;28.20;61.20;;;;;;5068281;28;20029;-79
2021/06/26 08:30:49;;;;;;;3.50;3.10;;;27.40;57.90;;;;;;5065758;28;20029;-79
2021/06/26 08:33:15;;;;;;;4.72;3.20;;;27.40;58.90;;;;;;5071322;28;20040;-79
2021/06/26 08:35:42;;;;;;;4.32;3.60;;;26.50;59.90;;;;;;5073322;28;20501;-79
2021/06/26 08:38:08;;;;;;;3.65;3.20;;;26.40;60.30;;;;;;5076602;28;20036;-79
2021/06/26 08:40:36;;;;;;;4.07;2.85;;;25.60;61.20;;;;;;5088566;28;20036;-78
2021/06/26 08:43:02;;;;;;;4.43;3.83;;;25.60;60.40;;;;;;5076544;28;20032;-78
2021/06/26 08:45:28;;;;;;;4.50;4.10;;;25.40;61.70;;;;;;5075411;28;20029;-79
2021/06/26 08:47:56;;;;;;;5.45;4.13;;;24.90;63.70;;;;;;5073215;28;20047;-78
2021/06/26 08:50:26;;;;;;;6.20;4.80;;;25.10;62.80;;;;;;5071937;28;20041;-78
2021/06/26 08:52:52;;;;;;;3.92;3.53;;;26.10;60.40;;;;;;5071819;28;20029;-79
2021/06/26 08:55:18;;;;;;;3.95;3.47;;;26.50;62.40;;;;;;5071088;28;20033;-78
2021/06/26 08:57:46;;;;;;;3.65;3.30;;;26.70;60.00;;;;;;5071190;28;20052;-78
2021/06/26 09:00:16;;;;;;;5.85;3.58;;;27.20;59.00;;;;;;5071597;28;20043;-79
2021/06/26 09:02:44;;;;;;;3.78;3.42;;;27.80;59.30;;;;;;5071489;28;20389;-79
2021/06/26 09:05:11;;;;;;;4.13;3.47;;;27.20;58.50;;;;;;5070760;28;20461;-79
2021/06/26 09:07:40;;;;;;;4.93;2.75;;;26.20;59.20;;;;;;5071289;28;20029;-80
2021/06/26 09:10:17;;;;;;;3.80;3.38;;;25.40;59.40;;;;;;5071048;28;20405;-78
2021/06/26 09:12:46;;;;;;;3.92;3.03;;;25.40;61.40;;;;;;5069113;28;20052;-81
2021/06/26 09:15:30;;;;;;;3.22;2.70;;;27.10;58.20;;;;;;5071263;28;20052;-79
2021/06/26 09:17:56;;;;;;;5.35;3.20;;;28.00;59.30;;;;;;5058984;28;20024;-76
2021/06/26 09:20:33;;;;;;;4.43;3.58;;;29.00;55.40;;;;;;5071123;28;20090;-79
2021/06/26 09:23:01;;;;;;;3.78;3.47;;;27.70;55.60;;;;;;5074576;28;20032;-78
2021/06/26 09:25:34;;;;;;;5.60;3.50;;;26.60;57.30;;;;;;5074485;28;20028;-78
2021/06/26 09:28:07;;;;;;;4.43;3.65;;;26.20;57.40;;;;;;5074878;28;20036;-80
2021/06/26 09:30:39;;;;;;;4.93;3.95;;;26.00;58.10;;;;;;5075220;28;20052;-79
2021/06/26 09:33:16;;;;;;;7.88;4.50;;;25.10;61.80;;;;;;5083437;28;20525;-79
2021/06/26 09:35:45;;;;;;;4.65;3.75;;;25.10;59.60;;;;;;5080782;28;20044;-79
2021/06/26 09:38:12;;;;;;;6.07;3.70;;;25.90;58.70;;;;;;5083279;28;20025;-79
2021/06/26 09:40:40;;;;;;;4.82;3.35;;;26.40;59.10;;;;;;5079560;28;20036;-78
2021/06/26 09:43:23;;;;;;;4.82;4.32;;;26.90;58.30;;;;;;5083571;28;20493;-77
2021/06/26 09:45:49;;;;;;;4.18;3.60;;;25.90;59.10;;;;;;5078721;28;20028;-78
2021/06/26 09:48:16;;;;;;;4.38;3.83;;;25.90;59.40;;;;;;5077208;28;20044;-79
2021/06/26 09:50:42;;;;;;;4.28;3.88;;;26.00;58.40;;;;;;5075967;28;20036;-76
2021/06/26 09:53:09;;;;;;;4.13;3.70;;;25.30;59.00;;;;;;5074335;28;20033;-79
2021/06/26 09:55:39;;;;;;;4.05;3.63;;;24.90;59.70;;;;;;5074267;28;20120;-78
2021/06/26 09:58:15;;;;;;;5.25;4.05;;;25.50;60.60;;;;;;5073358;28;20053;-78
2021/06/26 10:00:42;;;;;;;5.15;4.55;;;26.40;58.60;;;;;;5074628;28;20041;-78
2021/06/26 10:03:19;;;;;;;5.90;4.40;;;26.20;58.70;;;;;;5073987;28;20048;-78
2021/06/26 10:05:47;;;;;;;4.70;3.83;;;26.00;59.90;;;;;;5074085;28;20052;-79
2021/06/26 10:08:15;;;;;;;3.88;3.22;;;26.70;58.00;;;;;;5073444;28;20029;-78
2021/06/26 10:10:43;;;;;;;5.72;4.28;;;27.40;58.10;;;;;;5073834;28;20398;-78
2021/06/26 10:13:15;;;;;;;5.30;3.63;;;26.60;57.20;;;;;;5072971;28;20044;-78
2021/06/26 10:15:42;;;;;;;5.80;4.20;;;26.40;59.00;;;;;;5073452;28;20029;-77
2021/06/26 10:18:11;;;;;;;5.72;4.32;;;26.40;58.00;;;;;;5073290;28;20044;-79
2021/06/26 10:20:38;;;;;;;6.07;4.65;;;26.30;58.00;;;;;;5073989;28;20028;-79
2021/06/26 10:23:05;;;;;;;6.15;4.60;;;26.00;58.00;;;;;;5073583;28;20040;-79
2021/06/26 10:25:37;;;;;;;5.53;3.83;;;26.10;57.70;;;;;;5073729;28;20033;-78
2021/06/26 10:28:13;;;;;;;9.82;4.53;;;26.10;56.90;;;;;;5071653;28;20051;-79
2021/06/26 10:30:40;;;;;;;6.28;4.65;;;26.90;58.90;;;;;;5076054;28;20040;-80
2021/06/26 10:33:09;;;;;;;5.43;3.67;;;26.40;57.50;;;;;;5082771;28;20028;-79
2021/06/26 10:35:50;;;;;;;5.20;4.15;;;27.30;56.50;;;;;;5074510;28;20036;-79
2021/06/26 10:38:16;;;;;;;6.05;4.65;;;26.60;56.50;;;;;;5073118;28;20032;-78
2021/06/26 10:40:48;;;;;;;5.07;3.60;;;26.50;56.90;;;;;;5073303;28;20040;-77
2021/06/26 10:43:25;;;;;;;6.03;3.67;;;25.80;57.40;;;;;;5068329;28;20037;-77
2021/06/26 10:46:16;;;;;;;5.18;4.05;;;26.10;57.20;;;;;;5068185;28;20036;-77
2021/06/26 10:49:05;;;;;;;5.10;4.10;;;26.70;56.50;;;;;;5075350;28;20024;-78
2021/06/26 10:51:35;;;;;;;5.07;4.20;;;26.00;58.30;;;;;;5073088;28;20036;-80
2021/06/26 10:54:16;;;;;;;3.88;3.53;;;26.40;58.40;;;;;;5072603;28;20029;-78
2021/06/26 10:56:44;;;;;;;6.95;4.80;;;26.40;58.80;;;;;;5059453;28;20035;-78
2021/06/26 10:59:16;;;;;;;4.82;4.43;;;26.70;57.80;;;;;;5073643;28;20059;-77
2021/06/26 11:02:05;;;;;;;5.05;3.67;;;25.70;57.30;;;;;;5073032;28;20036;-79
2021/06/26 11:04:33;;;;;;;6.40;4.28;;;25.40;57.70;;;;;;5073546;28;20028;-78
2021/06/26 11:07:10;;;;;;;5.75;4.05;;;25.30;57.80;;;;;;5074552;28;20037;-78
2021/06/26 11:09:48;;;;;;;4.05;3.60;;;25.90;57.60;;;;;;5073797;28;20052;-77
2021/06/26 11:12:20;;;;;;;4.63;3.83;;;26.30;55.60;;;;;;5067473;28;20049;-79
2021/06/26 11:14:51;;;;;;;4.78;3.75;;;25.90;56.00;;;;;;5061303;28;20095;-77
2021/06/26 11:17:21;;;;;;;4.15;3.75;;;25.40;56.90;;;;;;5071226;28;20044;-78
2021/06/26 11:19:48;;;;;;;5.95;4.68;;;25.70;58.00;;;;;;5072664;28;20378;-77
2021/06/26 11:22:15;;;;;;;4.40;3.92;;;25.80;57.60;;;;;;5073122;28;20462;-77
2021/06/26 11:24:44;;;;;;;4.97;4.10;;;25.90;56.50;;;;;;5072977;28;20378;-79
2021/06/26 11:27:17;;;;;;;5.45;3.53;;;26.00;57.40;;;;;;5071855;28;20402;-78
2021/06/26 11:29:45;;;;;;;4.38;3.42;;;26.40;57.10;;;;;;5071729;28;20111;-78
2021/06/26 11:32:21;;;;;;;5.88;3.60;;;26.60;56.10;;;;;;5071710;28;20036;-77
2021/06/26 11:35:07;;;;;;;5.68;4.78;;;26.50;54.30;;;;;;5073222;28;20036;-78
2021/06/26 11:37:36;;;;;;;4.47;3.88;;;26.50;57.20;;;;;;5072557;28;20047;-79
2021/06/26 11:40:16;;;;;;;5.13;3.37;;;26.10;56.00;;;;;;5072595;28;20036;-78
2021/06/26 11:42:52;;;;;;;;;;;25.90;56.50;;;;;;5075193;28;20279;-77
2021/06/26 11:45:29;;;;;;;3.90;3.05;;;25.50;53.60;;;;;;5072021;28;19908;-78
2021/06/26 11:48:10;;;;;;;3.53;3.10;;;25.80;55.60;;;;;;5071824;28;20461;-80
2021/06/26 11:50:46;;;;;;;4.10;3.25;;;26.20;55.90;;;;;;5072021;28;20048;-77
2021/06/26 11:53:14;;;;;;;3.75;2.90;;;26.00;55.60;;;;;;5066969;28;20052;-77
2021/06/26 11:55:56;;;;;;;3.42;2.65;;;25.60;54.30;;;;;;5069931;28;20381;-77
2021/06/26 11:58:23;;;;;;;3.13;2.42;;;25.40;54.00;;;;;;5071829;28;20421;-78
2021/06/26 12:01:07;;;;;;;3.40;3.10;;;25.60;55.30;;;;;;5071913;28;20039;-78
2021/06/26 12:03:34;;;;;;;3.88;2.88;;;25.90;54.00;;;;;;5072028;28;20051;-79
2021/06/26 12:06:06;;;;;;;4.20;3.00;;;25.80;53.80;;;;;;5071221;28;20493;-77
2021/06/26 12:08:52;;;;;;;4.22;3.83;;;25.70;55.20;;;;;;5070451;28;20067;-79
2021/06/26 12:11:23;;;;;;;4.93;3.65;;;25.40;55.80;;;;;;5071159;28;20044;-79
2021/06/26 12:13:51;;;;;;;4.40;3.72;;;25.10;56.30;;;;;;5071538;28;20025;-79
2021/06/26 12:16:20;;;;;;;5.60;3.97;;;25.10;57.60;;;;;;5071965;28;20032;-79
2021/06/26 12:18:51;;;;;;;5.30;3.92;;;25.40;58.20;;;;;;5072164;28;20029;-79
2021/06/26 12:21:19;;;;;;;6.60;6.00;;;25.90;58.00;;;;;;5071847;28;20389;-79
2021/06/26 12:23:51;;;;;;;7.00;5.40;;;26.10;59.10;;;;;;5072216;28;20029;-80
2021/06/26 12:26:27;;;;;;;5.80;4.88;;;26.20;59.80;;;;;;5072494;28;20043;-78
2021/06/26 12:28:53;;;;;;;7.38;6.13;;;26.00;59.80;;;;;;5071438;28;20642;-78
2021/06/26 12:31:21;;;;;;;4.82;4.43;;;25.50;60.40;;;;;;5072069;28;20049;-79
2021/06/26 12:34:07;;;;;;;6.05;5.10;;;25.20;61.30;;;;;;5071150;28;20039;-79
2021/06/26 12:36:34;;;;;;;6.70;4.95;;;25.20;60.60;;;;;;5060008;28;20405;-78
2021/06/26 12:39:01;;;;;;;7.63;5.15;;;25.60;60.00;;;;;;5070625;28;20044;-79
2021/06/26 12:41:32;;;;;;;7.20;4.63;;;25.50;60.60;;;;;;5071530;28;20032;-79